Time;durP1;ratioP1;P1;durP2;ratioP2;P2;SDS_P1;SDS_P2;PMS_P1;PMS_P2;Temp;Humidity;BMP_temperature;BMP_pressure;BME280_temperature;BME280_humidity;BME280_pressure;Samples;Min_cycle;Max_cycle;Signal;HPM_P1;HPM_P2
2021/11/03 00:02:28;;;;;;;39.90;20.52;;;;;;;1.47;100.00;100054.91;5202873;28;20078;-72
2021/11/03 00:05:00;;;;;;;36.72;19.67;;;;;;;1.43;100.00;100050.84;5202512;28;20422;-72
2021/11/03 00:07:31;;;;;;;40.65;19.67;;;;;;;1.41;100.00;100050.97;5202516;28;20421;-72
2021/11/03 00:10:05;;;;;;;36.28;17.95;;;;;;;1.38;100.00;100051.22;5202397;28;20021;-72
2021/11/03 00:12:36;;;;;;;51.30;16.77;;;;;;;1.36;100.00;100047.03;5202725;28;20100;-72
2021/11/03 00:15:07;;;;;;;37.03;18.38;;;;;;;1.34;100.00;100046.31;5202730;28;20108;-72
2021/11/03 00:17:38;;;;;;;43.97;19.73;;;;;;;1.31;100.00;100043.94;5202657;28;20025;-72
2021/11/03 00:20:12;;;;;;;33.53;18.70;;;;;;;1.30;100.00;100048.34;5201780;28;20524;-72
2021/11/03 00:22:42;;;;;;;38.00;19.13;;;;;;;1.28;100.00;100039.72;5202899;28;20378;-72
2021/11/03 00:25:13;;;;;;;39.53;19.02;;;;;;;1.24;100.00;100039.13;5202500;28;20037;-72
2021/11/03 00:27:43;;;;;;;39.67;19.35;;;;;;;1.22;100.00;100042.88;5203182;28;20111;-72
2021/11/03 00:30:14;;;;;;;38.20;20.00;;;;;;;1.20;100.00;100031.56;5202364;28;20025;-72
2021/11/03 00:32:44;;;;;;;35.40;18.50;;;;;;;1.21;100.00;100035.94;5202192;28;20377;-72
2021/11/03 00:35:16;;;;;;;36.53;19.15;;;;;;;1.22;100.00;100035.78;5201796;28;20482;-72
2021/11/03 00:37:46;;;;;;;33.78;17.00;;;;;;;1.21;100.00;100025.34;5202028;28;20034;-72
2021/11/03 00:40:17;;;;;;;34.08;17.23;;;;;;;1.19;100.00;100029.91;5201762;28;20025;-72
2021/11/03 00:42:47;;;;;;;33.85;17.42;;;;;;;1.15;100.00;100033.75;5201918;28;20028;-72
2021/11/03 00:45:20;;;;;;;34.78;18.08;;;;;;;1.12;100.00;100028.75;5201760;28;20049;-72
2021/11/03 00:47:50;;;;;;;41.65;20.38;;;;;;;1.10;100.00;100023.56;5201936;28;20017;-72
2021/11/03 00:50:21;;;;;;;42.95;19.08;;;;;;;1.10;100.00;100020.09;5201767;28;20022;-72
2021/11/03 00:52:52;;;;;;;35.40;16.83;;;;;;;1.07;100.00;100025.66;5201546;28;20108;-72
2021/11/03 00:55:23;;;;;;;32.58;16.88;;;;;;;1.02;100.00;100013.66;5201413;28;20482;-72
2021/11/03 00:57:53;;;;;;;31.67;16.95;;;;;;;0.99;100.00;100019.16;5202380;28;20036;-72
2021/11/03 01:00:24;;;;;;;32.17;15.63;;;;;;;0.99;100.00;100023.63;5201193;28;20038;-72
2021/11/03 01:02:54;;;;;;;32.00;16.27;;;;;;;1.03;100.00;100017.13;5201519;28;20021;-72
2021/11/03 01:05:25;;;;;;;37.60;16.92;;;;;;;1.06;100.00;100019.53;5201547;28;20564;-72
2021/11/03 01:07:56;;;;;;;34.22;17.55;;;;;;;1.04;100.00;100019.63;5201648;28;20471;-72
2021/11/03 01:10:27;;;;;;;33.13;17.02;;;;;;;1.02;100.00;100023.38;5201526;28;20145;-71
2021/11/03 01:12:57;;;;;;;35.72;18.45;;;;;;;0.99;100.00;100019.16;5201735;28;20022;-72
2021/11/03 01:15:28;;;;;;;36.65;18.48;;;;;;;0.97;100.00;100015.00;5201439;28;20421;-72
2021/11/03 01:17:59;;;;;;;37.80;18.90;;;;;;;0.96;100.00;100013.31;5201199;28;20048;-71
2021/11/03 01:20:30;;;;;;;36.90;18.02;;;;;;;0.94;100.00;100007.31;5200898;28;20246;-71
2021/11/03 01:23:01;;;;;;;34.50;18.30;;;;;;;0.93;100.00;99998.53;5201595;28;20021;-72
2021/11/03 01:25:33;;;;;;;46.38;22.45;;;;;;;0.96;100.00;100008.88;5201227;28;20493;-72
2021/11/03 01:28:04;;;;;;;43.00;19.42;;;;;;;0.98;100.00;100001.66;5214565;28;20013;-72
2021/11/03 01:30:35;;;;;;;37.53;18.73;;;;;;;1.01;100.00;99992.66;5201647;28;20528;-71
2021/11/03 01:33:06;;;;;;;42.85;21.45;;;;;;;1.05;100.00;99996.69;5200586;28;20033;-71
2021/11/03 01:35:37;;;;;;;38.80;19.88;;;;;;;1.14;100.00;99990.66;5201185;28;20013;-71
2021/11/03 01:38:07;;;;;;;43.83;21.17;;;;;;;1.19;100.00;99998.22;5200925;28;20426;-71
2021/11/03 01:40:45;;;;;;;43.03;22.58;;;;;;;1.20;100.00;99998.06;5200546;28;20024;-71
2021/11/03 01:43:33;;;;;;;45.38;21.52;;;;;;;1.26;100.00;99987.00;5200675;28;20426;-72
2021/11/03 01:46:28;;;;;;;45.60;21.75;;;;;;;1.30;100.00;99987.56;5200287;28;20029;-71
2021/11/03 01:49:05;;;;;;;49.30;22.85;;;;;;;1.30;100.00;99987.56;5206590;28;20036;-71
2021/11/03 01:51:44;;;;;;;46.13;20.25;;;;;;;1.32;100.00;99976.91;5200889;28;20025;-73
2021/11/03 01:54:22;;;;;;;47.83;20.90;;;;;;;1.38;100.00;99979.03;5200909;28;20090;-71
2021/11/03 01:56:53;;;;;;;43.65;21.17;;;;;;;1.44;100.00;99973.22;5201147;28;20028;-72
2021/11/03 01:59:28;;;;;;;47.15;23.00;;;;;;;1.46;100.00;99976.59;5200808;28;20454;-71
2021/11/03 02:02:00;;;;;;;51.65;22.95;;;;;;;1.43;100.00;99974.19;5200781;28;20033;-72
2021/11/03 02:04:31;;;;;;;48.45;22.63;;;;;;;1.39;100.00;99973.59;5201342;28;20360;-71
2021/11/03 02:07:23;;;;;;;44.67;22.38;;;;;;;1.35;100.00;99969.53;5200427;28;20116;-71
2021/11/03 02:10:03;;;;;;;50.30;23.08;;;;;;;1.34;100.00;99969.66;5200720;28;20210;-71
2021/11/03 02:12:34;;;;;;;46.00;22.35;;;;;;;1.32;100.00;99969.81;5200694;28;20028;-71
2021/11/03 02:15:06;;;;;;;49.72;22.52;;;;;;;1.34;100.00;99970.50;5200768;28;20044;-71
2021/11/03 02:17:39;;;;;;;123.43;22.90;;;;;;;1.36;100.00;99979.16;5200379;28;20068;-71
2021/11/03 02:20:18;;;;;;;46.38;19.67;;;;;;;1.32;100.00;99980.38;5200020;28;20025;-71
2021/11/03 02:23:02;;;;;;;141.73;20.70;;;;;;;1.25;100.00;99987.13;5200095;28;20451;-71
2021/11/03 02:25:42;;;;;;;55.22;17.85;;;;;;;1.18;100.00;99986.81;5200390;28;20033;-71
2021/11/03 02:28:24;;;;;;;45.80;20.02;;;;;;;1.12;100.00;99982.03;5200417;28;20026;-71
2021/11/03 02:30:56;;;;;;;48.63;21.65;;;;;;;1.12;100.00;99982.03;5200171;28;20386;-73
2021/11/03 02:33:34;;;;;;;43.47;20.85;;;;;;;1.14;100.00;99984.53;5199830;28;20030;-71
2021/11/03 02:36:07;;;;;;;41.42;18.30;;;;;;;1.21;100.00;99991.00;5200571;28;20028;-71
2021/11/03 02:38:41;;;;;;;41.00;21.30;;;;;;;1.25;100.00;99987.94;5200134;28;20037;-71
2021/11/03 02:41:18;;;;;;;46.47;21.95;;;;;;;1.25;100.00;99995.88;5199976;28;20029;-72
2021/11/03 02:44:04;;;;;;;44.30;20.73;;;;;;;1.24;100.00;99982.81;5199905;28;20620;-72
2021/11/03 02:46:35;;;;;;;46.65;21.52;;;;;;;1.22;100.00;99990.88;5200205;28;20127;-72
2021/11/03 02:49:06;;;;;;;50.15;22.45;;;;;;;1.21;100.00;99989.19;5199572;28;20108;-72
2021/11/03 02:51:40;;;;;;;51.38;22.33;;;;;;;1.20;100.00;99995.44;5199968;28;20021;-72
2021/11/03 02:54:14;;;;;;;51.75;22.90;;;;;;;1.21;100.00;99989.19;5199757;28;20493;-72
2021/11/03 02:56:49;;;;;;;44.83;22.23;;;;;;;1.21;100.00;99991.84;5199896;28;20421;-73
2021/11/03 02:59:26;;;;;;;46.88;21.48;;;;;;;1.23;100.00;99983.78;5199386;28;20028;-72
2021/11/03 03:01:59;;;;;;;43.90;22.05;;;;;;;1.22;100.00;99984.75;5199711;28;20505;-73
2021/11/03 03:04:35;;;;;;;51.92;22.30;;;;;;;1.24;100.00;99980.16;5199574;28;20057;-72
2021/11/03 03:07:06;;;;;;;;;;;;;;;1.29;100.00;99984.09;5200112;28;20189;-72
2021/11/03 03:09:37;;;;;;;45.63;21.60;;;;;;;1.35;100.00;99988.03;5199311;28;19909;-72
2021/11/03 03:12:10;;;;;;;53.75;24.48;;;;;;;1.43;100.00;99982.13;5199573;28;20048;-72
2021/11/03 03:14:43;;;;;;;49.75;22.77;;;;;;;1.45;100.00;99990.75;5199868;28;20027;-72
2021/11/03 03:17:16;;;;;;;50.25;23.88;;;;;;;1.42;100.00;99985.72;5199634;28;20025;-72
2021/11/03 03:19:47;;;;;;;48.55;21.33;;;;;;;1.38;100.00;99989.59;5199134;28;20025;-72
2021/11/03 03:22:20;;;;;;;44.35;20.08;;;;;;;1.35;100.00;99998.59;5200159;28;20021;-72
2021/11/03 03:24:51;;;;;;;39.70;19.23;;;;;;;1.31;100.00;100001.66;5199820;28;20037;-72
2021/11/03 03:27:21;;;;;;;41.67;21.05;;;;;;;1.29;100.00;100007.88;5200018;28;20044;-71
2021/11/03 03:29:52;;;;;;;46.63;21.40;;;;;;;1.31;100.00;100002.50;5198925;28;20425;-72
2021/11/03 03:32:23;;;;;;;48.90;21.17;;;;;;;1.34;100.00;100006.66;5199523;28;20028;-72
2021/11/03 03:34:53;;;;;;;45.38;20.73;;;;;;;1.35;100.00;100000.41;5199940;28;20037;-72
2021/11/03 03:37:24;;;;;;;49.25;22.15;;;;;;;1.34;100.00;100001.38;5199302;28;20045;-72
2021/11/03 03:39:55;;;;;;;55.58;24.05;;;;;;;1.32;100.00;100009.44;5198456;28;20044;-72
2021/11/03 03:42:25;;;;;;;60.83;23.40;;;;;;;1.35;100.00;100009.16;5199499;28;20442;-72
2021/11/03 03:44:56;;;;;;;54.58;24.02;;;;;;;1.36;100.00;100013.50;5199328;28;20390;-72
2021/11/03 03:47:26;;;;;;;62.40;26.77;;;;;;;1.40;100.00;100011.44;5199340;28;20053;-71
2021/11/03 03:49:57;;;;;;;67.03;26.83;;;;;;;1.43;100.00;100013.84;5198958;28;20021;-72
2021/11/03 03:52:27;;;;;;;75.70;28.52;;;;;;;1.46;100.00;100010.94;5199342;28;20061;-72
2021/11/03 03:54:58;;;;;;;67.65;27.58;;;;;;;1.50;100.00;100009.69;5199241;28;20026;-72
2021/11/03 03:57:28;;;;;;;56.92;24.67;;;;;;;1.51;100.00;100008.75;5199199;28;20030;-72
2021/11/03 03:59:59;;;;;;;55.28;24.50;;;;;;;1.50;100.00;100018.47;5198780;28;20116;-72
2021/11/03 04:02:29;;;;;;;61.63;26.25;;;;;;;1.49;100.00;100018.59;5199066;28;20052;-72
2021/11/03 04:05:00;;;;;;;62.22;26.83;;;;;;;1.51;100.00;100021.97;5198771;28;20035;-72
2021/11/03 04:07:31;;;;;;;49.92;22.90;;;;;;;1.52;100.00;100029.75;5199378;28;20120;-72
2021/11/03 04:10:01;;;;;;;54.58;23.30;;;;;;;1.52;100.00;100027.13;5200347;28;20025;-72
2021/11/03 04:12:32;;;;;;;61.42;23.92;;;;;;;1.52;100.00;100027.13;5202916;28;20033;-72
2021/11/03 04:15:03;;;;;;;57.20;24.88;;;;;;;1.54;100.00;100034.91;5203081;28;20049;-72
2021/11/03 04:17:34;;;;;;;58.72;25.35;;;;;;;1.54;100.00;100025.19;5202643;28;20040;-72
2021/11/03 04:20:06;;;;;;;67.03;28.48;;;;;;;1.57;100.00;100023.25;5202644;28;20049;-72
2021/11/03 04:22:37;;;;;;;64.90;27.55;;;;;;;1.59;100.00;100024.78;5202601;28;20025;-72
2021/11/03 04:25:09;;;;;;;64.60;28.52;;;;;;;1.60;100.00;100023.81;5202492;28;20025;-71
2021/11/03 04:27:41;;;;;;;63.80;27.30;;;;;;;1.62;100.00;100027.19;5202459;28;20048;-71
2021/11/03 04:30:15;;;;;;;71.03;28.13;;;;;;;1.64;100.00;100030.53;5201928;28;20033;-72
2021/11/03 04:32:46;;;;;;;69.80;29.17;;;;;;;1.67;100.00;100030.28;5192273;28;20486;-71
2021/11/03 04:35:16;;;;;;;68.28;27.67;;;;;;;1.69;100.00;100025.69;5202476;28;20029;-72
2021/11/03 04:37:47;;;;;;;58.75;24.25;;;;;;;1.73;100.00;100024.47;5202493;28;20021;-72
2021/11/03 04:40:21;;;;;;;57.08;23.15;;;;;;;1.75;100.00;100027.81;5201518;28;20453;-72
2021/11/03 04:42:52;;;;;;;57.47;23.88;;;;;;;1.89;100.00;100029.28;5202494;28;20139;-74
2021/11/03 04:45:23;;;;;;;61.00;25.73;;;;;;;1.95;100.00;100014.72;5202003;28;20566;-72
2021/11/03 04:47:54;;;;;;;56.53;25.38;;;;;;;1.93;100.00;100024.59;5202234;28;20029;-72
2021/11/03 04:50:28;;;;;;;53.03;24.65;;;;;;;1.88;100.00;100022.34;5201700;28;20079;-72
2021/11/03 04:52:59;;;;;;;57.13;26.83;;;;;;;1.87;100.00;100022.47;5201752;28;20022;-72
2021/11/03 04:55:29;;;;;;;60.97;26.50;;;;;;;1.86;100.00;100018.13;5202693;28;20425;-72
2021/11/03 04:58:00;;;;;;;57.33;26.10;;;;;;;1.85;100.00;100021.75;5201869;28;20047;-72
2021/11/03 05:00:32;;;;;;;48.85;22.35;;;;;;;1.85;100.00;100024.41;5201549;28;20045;-71
2021/11/03 05:03:03;;;;;;;64.80;26.23;;;;;;;1.86;100.00;100018.13;5201749;28;20482;-71
2021/11/03 05:05:35;;;;;;;62.10;27.23;;;;;;;1.85;100.00;100012.00;5199852;28;20079;-71
2021/11/03 05:08:06;;;;;;;58.58;24.98;;;;;;;1.85;100.00;100019.94;5201559;28;20057;-71
2021/11/03 05:10:37;;;;;;;59.45;27.48;;;;;;;1.84;100.00;100017.44;5201165;28;20099;-72
2021/11/03 05:13:07;;;;;;;54.38;24.42;;;;;;;1.81;100.00;100016.75;5201419;28;20217;-72
2021/11/03 05:15:38;;;;;;;55.60;24.10;;;;;;;1.82;100.00;100017.56;5199984;28;20026;-71
2021/11/03 05:18:09;;;;;;;58.88;24.98;;;;;;;1.83;100.00;100023.69;5201117;28;20108;-71
2021/11/03 05:20:40;;;;;;;53.60;24.45;;;;;;;1.84;100.00;100028.00;5200822;28;20024;-71
2021/11/03 05:23:10;;;;;;;61.17;24.20;;;;;;;1.81;100.00;100014.09;5201768;28;20025;-71
2021/11/03 05:25:41;;;;;;;62.85;24.50;;;;;;;1.84;100.00;100014.78;5201164;28;20025;-71
2021/11/03 05:28:11;;;;;;;62.15;25.80;;;;;;;1.83;100.00;100021.88;5201020;28;20029;-71
2021/11/03 05:30:42;;;;;;;60.13;24.88;;;;;;;1.85;100.00;100019.09;5200645;28;20492;-71
2021/11/03 05:33:12;;;;;;;61.83;26.73;;;;;;;1.88;100.00;100013.56;5201726;28;20476;-71
2021/11/03 05:35:44;;;;;;;55.47;25.48;;;;;;;1.89;100.00;100016.06;5201417;28;20363;-71
2021/11/03 05:38:14;;;;;;;59.60;24.88;;;;;;;1.88;100.00;100017.03;5201907;28;20053;-71
2021/11/03 05:40:45;;;;;;;57.85;24.33;;;;;;;1.86;100.00;100015.47;5200426;28;20070;-71
2021/11/03 05:43:15;;;;;;;60.13;24.77;;;;;;;1.85;100.00;100012.00;5200950;28;20018;-71
2021/11/03 05:45:47;;;;;;;61.28;26.13;;;;;;;1.86;100.00;100015.47;5200838;28;20384;-71
2021/11/03 05:48:19;;;;;;;61.45;25.75;;;;;;;1.86;100.00;100010.19;5200992;28;20101;-71
2021/11/03 05:50:50;;;;;;;58.65;24.92;;;;;;;1.84;100.00;100010.34;5202605;28;20528;-71
2021/11/03 05:53:20;;;;;;;53.55;24.50;;;;;;;1.84;100.00;100005.03;5200038;28;20136;-71
2021/11/03 05:55:50;;;;;;;58.50;24.40;;;;;;;1.83;100.00;100006.03;5200993;28;20036;-71
2021/11/03 05:58:21;;;;;;;60.65;23.48;;;;;;;1.80;100.00;99999.16;5200515;28;20018;-71
2021/11/03 06:00:53;;;;;;;49.30;22.00;;;;;;;1.79;100.00;99997.50;5199686;28;20112;-71
2021/11/03 06:03:24;;;;;;;54.25;22.23;;;;;;;1.79;100.00;100002.78;5200769;28;20021;-71
2021/11/03 06:05:54;;;;;;;50.00;21.33;;;;;;;1.82;100.00;99991.13;5199906;28;20561;-71
2021/11/03 06:08:25;;;;;;;50.58;22.40;;;;;;;1.86;100.00;99991.69;5200574;28;20105;-72
2021/11/03 06:10:57;;;;;;;57.80;24.27;;;;;;;1.87;100.00;99994.22;5200222;28;20041;-71
2021/11/03 06:13:28;;;;;;;51.55;21.27;;;;;;;1.87;100.00;99994.22;5200278;28;20109;-71
2021/11/03 06:15:58;;;;;;;52.95;22.80;;;;;;;1.87;100.00;100001.31;5200518;28;20041;-71
2021/11/03 06:18:29;;;;;;;52.80;23.17;;;;;;;1.84;100.00;99999.75;5200316;28;20372;-71
2021/11/03 06:21:00;;;;;;;59.13;23.52;;;;;;;1.82;100.00;100004.34;5200069;28;20033;-71
2021/11/03 06:23:31;;;;;;;47.83;20.50;;;;;;;1.76;100.00;100000.44;5200671;28;20544;-71
2021/11/03 06:26:01;;;;;;;57.58;21.40;;;;;;;1.78;100.00;100016.16;5199980;28;20405;-71
2021/11/03 06:28:32;;;;;;;51.92;22.05;;;;;;;1.74;100.00;100015.56;5200262;28;20030;-71
2021/11/03 06:31:02;;;;;;;57.78;24.52;;;;;;;1.70;100.00;100010.66;5199246;28;20022;-71
2021/11/03 06:33:34;;;;;;;65.63;25.80;;;;;;;1.69;100.00;100017.75;5199831;28;20254;-71
2021/11/03 06:36:06;;;;;;;67.78;27.27;;;;;;;1.70;100.00;100008.84;5200170;28;20041;-71
2021/11/03 06:38:36;;;;;;;66.18;25.08;;;;;;;1.70;100.00;100008.03;5199834;28;20075;-71
2021/11/03 06:41:08;;;;;;;59.58;25.48;;;;;;;1.68;100.00;100008.16;5199206;28;20041;-71
2021/11/03 06:43:39;;;;;;;60.90;25.80;;;;;;;1.67;100.00;100010.94;5199969;28;20140;-71
2021/11/03 06:46:10;;;;;;;70.90;25.42;;;;;;;1.67;100.00;100018.88;5199779;28;20112;-71
2021/11/03 06:48:40;;;;;;;77.63;27.63;;;;;;;1.65;100.00;100016.34;5200210;28;20013;-71
2021/11/03 06:51:11;;;;;;;74.13;27.25;;;;;;;1.66;100.00;100017.22;5199677;28;20021;-71
2021/11/03 06:53:41;;;;;;;68.43;27.42;;;;;;;1.66;100.00;100014.56;5199958;28;20029;-71
2021/11/03 06:56:12;;;;;;;61.72;24.90;;;;;;;1.66;100.00;100018.03;5200416;28;20049;-71
2021/11/03 06:58:43;;;;;;;57.83;24.75;;;;;;;1.68;100.00;100023.19;5200272;28;20462;-71
2021/11/03 07:01:13;;;;;;;57.47;23.75;;;;;;;1.69;100.00;100022.22;5199656;28;20052;-71
2021/11/03 07:03:45;;;;;;;62.55;25.65;;;;;;;1.76;100.00;100016.28;5200074;28;20117;-71
2021/11/03 07:06:15;;;;;;;62.60;26.58;;;;;;;1.87;100.00;100017.19;5199148;28;20036;-71
2021/11/03 07:08:51;;;;;;;62.97;26.10;;;;;;;1.95;100.00;100014.72;5194396;28;20239;-71
2021/11/03 07:11:23;;;;;;;67.78;26.52;;;;;;;2.08;100.00;100012.69;5193720;28;20208;-71
2021/11/03 07:13:54;;;;;;;63.17;25.65;;;;;;;2.12;100.00;100016.75;5195517;28;20025;-72
2021/11/03 07:16:26;;;;;;;63.92;26.80;;;;;;;2.15;100.00;100013.00;5200098;28;20036;-71
2021/11/03 07:18:56;;;;;;;67.97;25.60;;;;;;;2.12;100.00;100003.53;5198886;28;20021;-71
2021/11/03 07:21:27;;;;;;;57.50;26.58;;;;;;;2.14;100.00;100008.69;5199929;28;20027;-72
2021/11/03 07:23:57;;;;;;;53.83;24.85;;;;;;;2.18;100.00;100013.56;5199551;28;20029;-71
2021/11/03 07:26:28;;;;;;;57.92;23.88;;;;;;;2.26;100.00;100011.13;5199668;28;20059;-71
2021/11/03 07:28:58;;;;;;;63.38;25.88;;;;;;;2.30;100.00;100020.44;5198966;28;20445;-71
2021/11/03 07:31:29;;;;;;;58.70;24.63;;;;;;;2.32;100.00;100029.09;5199151;28;20060;-73
2021/11/03 07:33:59;;;;;;;64.93;24.52;;;;;;;2.32;100.00;100018.50;5199489;28;20549;-75
2021/11/03 07:36:32;;;;;;;48.08;21.80;;;;;;;2.33;100.00;100020.19;5191156;28;20498;-75
2021/11/03 07:39:04;;;;;;;59.97;24.35;;;;;;;2.31;100.00;100021.31;5197013;28;20021;-75
2021/11/03 07:41:36;;;;;;;57.55;23.45;;;;;;;2.33;100.00;100022.00;5197828;28;20022;-75
2021/11/03 07:44:07;;;;;;;60.53;26.77;;;;;;;2.34;100.00;100018.38;5198399;28;20030;-75
2021/11/03 07:46:38;;;;;;;54.67;23.65;;;;;;;2.41;100.00;100018.66;5202484;28;20103;-75
2021/11/03 07:49:08;;;;;;;61.20;24.55;;;;;;;2.45;100.00;100028.84;5195235;28;20481;-75
2021/11/03 07:51:39;;;;;;;60.58;25.00;;;;;;;2.50;100.00;100033.75;5202616;28;20033;-75
2021/11/03 07:54:09;;;;;;;80.35;23.40;;;;;;;2.52;100.00;100037.13;5202140;28;20022;-75
2021/11/03 07:56:43;;;;;;;44.53;19.88;;;;;;;2.52;100.00;100043.25;5202464;28;20063;-75
2021/11/03 07:59:15;;;;;;;42.92;20.02;;;;;;;2.60;100.00;100039.91;5201395;28;20048;-75
2021/11/03 08:01:46;;;;;;;46.63;21.45;;;;;;;2.66;100.00;100047.34;5192894;28;20029;-75
2021/11/03 08:04:17;;;;;;;55.65;24.45;;;;;;;2.75;100.00;100050.97;5202329;28;20028;-75
2021/11/03 08:06:48;;;;;;;53.38;22.33;;;;;;;2.81;100.00;100048.63;5201881;28;20064;-75
2021/11/03 08:09:18;;;;;;;42.65;19.63;;;;;;;2.85;100.00;100052.66;5201242;28;20044;-75
2021/11/03 08:11:51;;;;;;;39.80;19.15;;;;;;;2.86;100.00;100056.16;5202271;28;20449;-75
2021/11/03 08:14:26;;;;;;;44.33;19.25;;;;;;;2.83;100.00;100067.88;5201690;28;20018;-74
2021/11/03 08:17:00;;;;;;;48.58;20.55;;;;;;;2.91;100.00;100066.34;5202346;28;20021;-74
2021/11/03 08:19:40;;;;;;;58.30;23.42;;;;;;;2.98;100.00;100064.84;5201128;28;20104;-75
2021/11/03 08:22:11;;;;;;;55.70;24.05;;;;;;;3.01;100.00;100068.06;5201286;28;20029;-76
2021/11/03 08:24:41;;;;;;;55.63;24.52;;;;;;;3.09;100.00;100070.84;5201888;28;20115;-76
2021/11/03 08:27:12;;;;;;;46.03;20.42;;;;;;;3.15;100.00;100068.63;5201233;28;20091;-75
2021/11/03 08:29:43;;;;;;;56.38;25.67;;;;;;;3.20;100.00;100069.88;5200570;28;20022;-75
2021/11/03 08:32:24;;;;;;;202.90;63.38;;;;;;;3.25;100.00;100077.41;5199860;28;20026;-76
2021/11/03 08:34:56;;;;;;;74.45;31.08;;;;;;;3.32;100.00;100078.56;5201596;28;20337;-75
2021/11/03 08:37:32;;;;;;;52.35;24.33;;;;;;;3.39;100.00;100077.03;5201558;28;20017;-75
2021/11/03 08:40:07;;;;;;;56.03;24.15;;;;;;;3.43;100.00;100080.25;5200297;28;20029;-76
2021/11/03 08:42:38;;;;;;;61.95;26.05;;;;;;;3.47;100.00;100073.69;5201326;28;20078;-75
2021/11/03 08:45:10;;;;;;;51.20;24.23;;;;;;;3.51;100.00;100064.44;5201648;28;20040;-75
2021/11/03 08:47:42;;;;;;;54.72;24.60;;;;;;;3.54;100.00;100070.31;5200759;28;20149;-75
2021/11/03 08:50:18;;;;;;;51.55;23.88;;;;;;;3.62;100.00;100072.28;5201227;28;20560;-75
2021/11/03 08:52:49;;;;;;;52.08;23.60;;;;;;;3.70;100.00;100080.34;5188542;28;20080;-75
2021/11/03 08:55:21;;;;;;;57.88;25.55;;;;;;;3.80;100.00;100077.69;5200512;28;20029;-75
2021/11/03 08:57:52;;;;;;;62.67;27.60;;;;;;;3.93;100.00;100088.88;5199286;28;20047;-74
2021/11/03 09:00:26;;;;;;;62.67;27.70;;;;;;;3.98;100.00;100086.63;5203197;28;20028;-74
2021/11/03 09:02:57;;;;;;;65.55;30.15;;;;;;;4.04;100.00;100095.84;5200116;28;20025;-74
2021/11/03 09:05:29;;;;;;;65.15;29.83;;;;;;;4.15;100.00;100093.84;5200651;28;20047;-74
2021/11/03 09:08:01;;;;;;;60.35;27.55;;;;;;;4.36;100.00;100090.97;5200555;28;20056;-74
2021/11/03 09:10:38;;;;;;;54.90;26.85;;;;;;;4.49;100.00;100090.69;5200397;28;20136;-74
2021/11/03 09:13:08;;;;;;;56.58;27.85;;;;;;;4.50;100.00;100081.72;5200762;28;20029;-74
2021/11/03 09:15:39;;;;;;;49.17;25.85;;;;;;;4.55;100.00;100078.63;5200263;28;20047;-74
2021/11/03 09:18:11;;;;;;;64.63;28.38;;;;;;;4.70;100.00;100081.63;5200342;28;20019;-74
2021/11/03 09:20:45;;;;;;;63.03;28.48;;;;;;;4.78;100.00;100068.47;5200185;28;20036;-74
2021/11/03 09:23:17;;;;;;;64.78;29.38;;;;;;;4.94;100.00;100071.31;5200488;28;20159;-74
2021/11/03 09:25:51;;;;;;;59.30;29.58;;;;;;;5.00;100.00;100075.19;5200317;28;20437;-75
2021/11/03 09:28:24;;;;;;;52.10;26.98;;;;;;;5.14;100.00;100075.50;5200309;28;20064;-74
2021/11/03 09:30:56;;;;;;;57.92;29.23;;;;;;;5.37;100.00;100083.91;5200029;28;20044;-74
2021/11/03 09:33:26;;;;;;;50.70;26.27;;;;;;;5.37;100.00;100078.59;5200554;28;20033;-75
2021/11/03 09:35:57;;;;;;;52.17;24.85;;;;;;;5.43;100.00;100079.81;5200406;28;20023;-75
2021/11/03 09:38:29;;;;;;;47.40;24.70;;;;;;;5.53;100.00;100080.56;5214991;28;20147;-74
2021/11/03 09:41:06;;;;;;;44.78;23.05;;;;;;;5.57;100.00;100078.41;5201218;28;20504;-75
2021/11/03 09:43:46;;;;;;;43.50;21.20;;;;;;;5.68;100.00;100073.72;5200368;28;20108;-75
2021/11/03 09:46:17;;;;;;;42.58;20.92;;;;;;;5.82;100.00;100082.13;5187023;28;20021;-72
2021/11/03 09:48:58;;;;;;;43.78;22.40;;;;;;;6.04;100.00;100094.16;5199193;28;20048;-74
2021/11/03 09:51:30;;;;;;;39.38;21.73;;;;;;;6.20;100.00;100092.44;5200284;28;20311;-74
2021/11/03 09:54:05;;;;;;;42.85;21.08;;;;;;;6.45;100.00;100098.75;5214946;28;20013;-74
2021/11/03 09:56:40;;;;;;;37.88;20.13;;;;;;;6.67;100.00;100101.84;5199657;28;20021;-74
2021/11/03 09:59:15;;;;;;;40.15;20.35;;;;;;;6.80;100.00;100107.59;5198593;28;20063;-74
2021/11/03 10:01:51;;;;;;;38.97;21.88;;;;;;;7.01;100.00;100104.50;5199685;28;20638;-74
2021/11/03 10:04:56;;;;;;;34.67;19.10;;;;;;;7.23;100.00;100103.91;5199779;28;20048;-74
2021/11/03 10:07:37;;;;;;;38.03;20.27;;;;;;;7.43;100.00;100101.78;5197449;28;20021;-74
2021/11/03 10:10:18;;;;;;;31.40;19.42;;;;;;;7.70;100.00;100097.16;5198874;28;20033;-75
2021/11/03 10:12:49;;;;;;;37.55;20.20;;;;;;;7.92;100.00;100103.66;5200092;28;20032;-74
2021/11/03 10:15:24;;;;;;;39.42;20.65;;;;;;;8.15;100.00;100109.16;5199629;28;20021;-73
2021/11/03 10:18:18;;;;;;;34.60;18.27;;;;;;;8.43;100.00;100113.16;5198836;28;20029;-73
2021/11/03 10:21:03;;;;;;;30.40;18.33;;;;;;;8.78;100.00;100101.19;5199004;28;20029;-72
2021/11/03 10:23:35;;;;;;;35.08;17.48;;;;;;;8.98;100.00;100104.28;5198999;28;20021;-73
2021/11/03 10:26:10;;;;;;;30.35;17.75;;;;;;;9.19;100.00;100105.56;5199244;28;20029;-73
2021/11/03 10:28:44;;;;;;;25.88;15.23;;;;;;;9.22;100.00;100111.38;5198617;28;20108;-73
2021/11/03 10:31:32;;;;;;;36.78;16.65;;;;;;;9.37;100.00;100108.78;5198792;28;20044;-75
2021/11/03 10:34:16;;;;;;;28.77;14.98;;;;;;;9.48;100.00;100105.69;5198131;28;20029;-74
2021/11/03 10:36:58;;;;;;;25.85;15.18;;;;;;;9.49;100.00;100104.69;5187003;28;20025;-74
2021/11/03 10:39:49;;;;;;;27.60;14.88;;;;;;;9.58;100.00;100103.59;5197930;28;20087;-74
2021/11/03 10:42:29;;;;;;;29.23;16.10;;;;;;;9.60;100.00;100098.09;5198892;28;20025;-75
2021/11/03 10:45:17;;;;;;;30.23;15.73;;;;;;;9.67;100.00;100096.34;5199023;28;20031;-74
2021/11/03 10:47:53;;;;;;;29.50;14.68;;;;;;;9.63;100.00;100094.22;5197313;28;20107;-74
2021/11/03 10:50:34;;;;;;;30.27;16.10;;;;;;;9.56;100.00;100094.09;5199101;28;20617;-74
2021/11/03 10:53:22;;;;;;;23.17;13.45;;;;;;;9.47;100.00;100097.84;5199090;28;20032;-74
2021/11/03 10:56:12;;;;;;;24.98;14.48;;;;;;;9.44;100.00;100096.38;5198901;28;20040;-74
2021/11/03 10:58:49;;;;;;;25.27;13.48;;;;;;;9.44;100.00;100095.50;5198417;28;20052;-75
2021/11/03 11:01:32;;;;;;;26.20;15.18;;;;;;;9.31;100.00;100091.56;5198999;28;20112;-74
2021/11/03 11:04:10;;;;;;;26.85;14.95;;;;;;;9.17;100.00;100097.69;5198465;28;20025;-75
2021/11/03 11:06:50;;;;;;;25.77;14.82;;;;;;;9.15;100.00;100098.88;5198921;28;20061;-74
2021/11/03 11:09:39;;;;;;;28.77;15.40;;;;;;;9.16;100.00;100093.34;5198101;28;20040;-74
2021/11/03 11:12:25;;;;;;;29.50;14.48;;;;;;;9.21;100.00;100095.50;5198418;28;20494;-75
2021/11/03 11:15:00;;;;;;;34.85;13.57;;;;;;;9.14;100.00;100089.19;5198648;28;20026;-75
2021/11/03 11:17:46;;;;;;;26.02;13.73;;;;;;;9.23;100.00;100093.47;5198508;28;20026;-75
2021/11/03 11:20:28;;;;;;;31.95;16.00;;;;;;;9.09;100.00;100089.72;5201748;28;20033;-75
2021/11/03 11:23:16;;;;;;;31.85;14.98;;;;;;;9.02;100.00;100094.91;5202864;28;20017;-75
2021/11/03 11:26:16;;;;;;;28.83;16.80;;;;;;;8.91;100.00;100086.44;5202957;28;20108;-75
2021/11/03 11:29:05;;;;;;;37.38;17.80;;;;;;;8.91;100.00;100094.47;5201678;28;20125;-75
2021/11/03 11:31:58;;;;;;;34.05;16.40;;;;;;;9.10;100.00;100091.38;5203007;28;20393;-74
2021/11/03 11:34:41;;;;;;;33.40;16.15;;;;;;;9.08;100.00;100090.69;5203612;28;20389;-74
2021/11/03 11:37:27;;;;;;;30.17;17.48;;;;;;;8.97;100.00;100080.38;5203359;28;20029;-75
2021/11/03 11:39:58;;;;;;;32.20;17.20;;;;;;;8.96;100.00;100092.09;5203080;28;20103;-74
2021/11/03 11:42:39;;;;;;;35.40;17.85;;;;;;;8.95;100.00;100093.94;5203166;28;20038;-75